Time;durP1;ratioP1;P1;durP2;ratioP2;P2;SDS_P1;SDS_P2;PMS_P1;PMS_P2;Temp;Humidity;BMP_temperature;BMP_pressure;BME280_temperature;BME280_humidity;BME280_pressure;Samples;Min_cycle;Max_cycle;Signal;HPM_P1;HPM_P2
2021/06/19 00:00:18;;;;;;;9.75;4.90;;;;;;;26.91;48.85;99849.09;10455097;28;20044;-73
2021/06/19 00:05:21;;;;;;;6.95;4.72;;;;;;;26.88;49.55;99863.22;10449919;28;20052;-76
2021/06/19 00:10:25;;;;;;;8.07;5.55;;;;;;;26.84;49.76;99879.25;10464768;28;20115;-74
2021/06/19 00:15:28;;;;;;;12.85;5.65;;;;;;;26.64;50.06;99890.53;10458578;28;20049;-74
2021/06/19 00:20:29;;;;;;;8.52;5.35;;;;;;;26.39;51.15;99897.06;10460116;28;20127;-77
2021/06/19 00:25:31;;;;;;;10.07;5.60;;;;;;;26.27;52.34;99909.84;10475443;28;20067;-74
2021/06/19 00:30:47;;;;;;;10.82;5.30;;;;;;;26.10;53.49;99915.16;10471243;28;20064;-75
2021/06/19 00:35:49;;;;;;;11.63;5.75;;;;;;;26.11;52.84;99912.19;10464899;28;20103;-74
2021/06/19 00:40:51;;;;;;;7.13;4.57;;;;;;;26.00;53.35;99907.56;10457339;28;20533;-74
2021/06/19 00:45:52;;;;;;;8.48;4.63;;;;;;;26.21;52.54;99908.06;10461058;28;20056;-74
2021/06/19 00:50:54;;;;;;;8.45;4.68;;;;;;;26.36;51.92;99893.97;10454771;28;20052;-74
2021/06/19 00:55:56;;;;;;;8.63;5.00;;;;;;;26.48;51.63;99902.16;10452562;28;20051;-74
2021/06/19 01:00:57;;;;;;;8.02;4.63;;;;;;;26.54;51.15;99896.59;10459778;28;20521;-75
2021/06/19 01:05:59;;;;;;;10.47;5.17;;;;;;;26.51;50.96;99893.50;10456903;28;20076;-75
2021/06/19 01:11:01;;;;;;;6.15;4.13;;;;;;;26.48;50.83;99899.44;10458401;28;20048;-75
2021/06/19 01:16:02;;;;;;;10.05;4.95;;;;;;;26.44;51.40;99902.63;10459321;28;20399;-77
2021/06/19 01:21:22;;;;;;;7.85;5.93;;;;;;;26.48;51.82;99913.91;10463554;28;20057;-75
2021/06/19 01:26:29;;;;;;;7.85;5.00;;;;;;;26.45;51.39;99912.50;10468044;28;20296;-73
2021/06/19 01:31:32;;;;;;;8.90;5.13;;;;;;;26.33;51.98;99910.81;10473229;28;20040;-75
2021/06/19 01:36:34;;;;;;;10.05;5.80;;;;;;;26.08;52.68;99923.59;10464211;28;20045;-74
2021/06/19 01:41:36;;;;;;;11.80;6.30;;;;;;;25.87;52.66;99935.00;10459258;28;20082;-74
2021/06/19 01:46:42;;;;;;;8.07;4.80;;;;;;;25.76;53.85;99945.63;10461350;28;20064;-73
2021/06/19 01:51:43;;;;;;;10.68;5.90;;;;;;;25.60;54.67;99943.56;10456849;28;20045;-74
2021/06/19 01:56:45;;;;;;;9.85;6.10;;;;;;;25.54;54.84;99952.66;10457717;28;20049;-73
2021/06/19 02:01:46;;;;;;;10.38;6.65;;;;;;;25.51;55.15;99945.75;10456444;28;20052;-73
2021/06/19 02:06:48;;;;;;;6.85;5.32;;;;;;;25.66;54.36;99964.44;10461588;28;20550;-74
2021/06/19 02:11:49;;;;;;;10.90;5.70;;;;;;;25.61;54.87;99969.72;10455107;28;20476;-74
2021/06/19 02:16:51;;;;;;;12.23;6.35;;;;;;;25.61;54.92;99974.34;10460252;28;20059;-74
2021/06/19 02:21:52;;;;;;;10.13;5.68;;;;;;;25.66;54.59;99969.88;10456315;28;20044;-74
2021/06/19 02:27:11;;;;;;;10.18;6.63;;;;;;;25.59;54.20;99950.88;10449806;28;20106;-74
2021/06/19 02:32:12;;;;;;;9.25;6.80;;;;;;;25.53;54.67;99959.97;10456896;28;20045;-74
2021/06/19 02:37:15;;;;;;;9.60;5.75;;;;;;;25.59;54.17;99958.22;10447722;28;20045;-73
2021/06/19 02:42:16;;;;;;;10.82;6.43;;;;;;;25.47;54.54;99949.16;10452849;28;20049;-74
2021/06/19 02:47:18;;;;;;;8.18;6.28;;;;;;;25.39;55.29;99962.03;10456394;28;20162;-75
2021/06/19 02:52:19;;;;;;;10.10;6.47;;;;;;;25.46;55.44;99961.13;10476833;28;20834;-72
2021/06/19 02:57:21;;;;;;;8.85;6.38;;;;;;;25.36;55.38;99957.03;10449719;28;20056;-74
2021/06/19 03:02:22;;;;;;;10.95;6.70;;;;;;;25.20;55.85;99947.56;10446581;28;20056;-72
2021/06/19 03:07:24;;;;;;;10.75;6.07;;;;;;;25.31;55.82;99937.84;10461602;28;20052;-74
2021/06/19 03:12:27;;;;;;;13.25;7.07;;;;;;;25.34;55.92;99950.16;10458350;28;20041;-74
2021/06/19 03:17:28;;;;;;;10.57;6.60;;;;;;;25.33;56.02;99952.06;10454426;28;20045;-74
2021/06/19 03:22:42;;;;;;;8.05;5.63;;;;;;;25.36;55.69;99962.50;10454067;28;20060;-74
2021/06/19 03:27:45;;;;;;;8.80;6.75;;;;;;;25.09;56.95;99955.69;10454868;28;20048;-74
2021/06/19 03:32:47;;;;;;;12.40;6.88;;;;;;;25.11;57.23;99975.34;10466220;28;20415;-74
2021/06/19 03:37:49;;;;;;;10.37;7.13;;;;;;;25.21;57.24;99984.63;10462239;28;20068;-73
2021/06/19 03:42:51;;;;;;;8.40;6.43;;;;;;;25.20;57.04;99973.97;10464271;28;20621;-73
2021/06/19 03:47:54;;;;;;;9.10;6.95;;;;;;;25.17;57.73;99968.97;10460363;28;20048;-75
2021/06/19 03:52:56;;;;;;;;;;;;;;;25.31;57.62;99978.69;10468124;28;20154;-72
2021/06/19 03:57:59;;;;;;;12.32;6.97;;;;;;;25.40;56.98;99979.19;10460988;28;19921;-73
2021/06/19 04:03:02;;;;;;;8.43;7.15;;;;;;;25.44;56.95;99985.88;10464128;28;20485;-74
2021/06/19 04:08:04;;;;;;;11.80;6.28;;;;;;;25.47;57.17;99982.69;10454479;28;20048;-74
2021/06/19 04:13:05;;;;;;;10.25;6.55;;;;;;;25.58;57.33;99986.53;10463457;28;20766;-74
2021/06/19 04:18:07;;;;;;;8.85;6.45;;;;;;;25.47;57.58;99984.59;10462349;28;20469;-75
2021/06/19 04:23:10;;;;;;;9.63;7.15;;;;;;;25.62;58.06;100003.28;10454493;28;20052;-74
2021/06/19 04:28:11;;;;;;;;;;;;;;;25.62;57.55;100001.38;10448228;28;20055;-74
2021/06/19 04:33:13;;;;;;;8.43;6.35;;;;;;;25.64;57.02;100002.00;10465259;28;19951;-74
2021/06/19 04:38:14;;;;;;;9.48;7.13;;;;;;;25.57;57.15;100010.22;10466183;28;20049;-73
2021/06/19 04:43:18;;;;;;;9.75;6.55;;;;;;;25.58;57.54;100024.69;10463184;28;20434;-72
2021/06/19 04:48:19;;;;;;;8.75;6.97;;;;;;;25.35;57.51;100028.94;10458688;28;20048;-73
2021/06/19 04:53:22;;;;;;;10.70;7.30;;;;;;;25.32;58.46;100050.34;10453915;28;20052;-73
2021/06/19 04:58:24;;;;;;;10.52;7.65;;;;;;;25.26;58.57;100041.16;10452679;28;20048;-76
2021/06/19 05:03:26;;;;;;;8.60;7.77;;;;;;;25.11;59.15;100043.41;10451517;28;20521;-73
2021/06/19 05:08:28;;;;;;;11.65;7.35;;;;;;;25.04;59.26;100047.03;10462118;28;20044;-74
2021/06/19 05:13:29;;;;;;;12.30;8.75;;;;;;;25.10;59.22;100056.19;10465972;28;20052;-73
2021/06/19 05:18:31;;;;;;;8.40;6.72;;;;;;;24.95;59.99;100050.25;10453616;28;20048;-73
2021/06/19 05:23:32;;;;;;;12.18;7.80;;;;;;;25.14;59.22;100073.75;10457443;28;20806;-74
2021/06/19 05:28:34;;;;;;;11.00;8.27;;;;;;;25.00;59.85;100073.03;10460549;28;20546;-74
2021/06/19 05:33:36;;;;;;;10.98;7.63;;;;;;;25.07;59.80;100072.97;10467037;28;20423;-74
2021/06/19 05:38:37;;;;;;;10.35;7.25;;;;;;;25.27;59.23;100067.34;10459843;28;20186;-74
2021/06/19 05:43:39;;;;;;;7.50;6.32;;;;;;;25.33;58.89;100069.19;10469086;28;20057;-72
2021/06/19 05:48:41;;;;;;;11.35;6.60;;;;;;;25.39;58.68;100075.63;10463294;28;20056;-73
2021/06/19 05:53:43;;;;;;;9.10;6.90;;;;;;;25.46;58.22;100078.28;10459706;28;20052;-74
2021/06/19 05:58:44;;;;;;;8.27;6.80;;;;;;;25.61;57.86;100080.63;10457159;28;20287;-73
2021/06/19 06:03:48;;;;;;;8.30;6.00;;;;;;;25.74;58.02;100081.31;10464753;28;20045;-72
2021/06/19 06:08:50;;;;;;;11.70;7.38;;;;;;;25.80;56.96;100078.75;10454514;28;20044;-73
2021/06/19 06:13:51;;;;;;;9.85;6.60;;;;;;;25.86;56.51;100075.09;10463413;28;20071;-73
2021/06/19 06:18:53;;;;;;;8.98;5.22;;;;;;;25.72;56.16;100058.91;10459969;28;20584;-73
2021/06/19 06:23:54;;;;;;;8.90;5.60;;;;;;;25.93;56.72;100075.84;10467619;28;20056;-73
2021/06/19 06:28:56;;;;;;;8.27;4.90;;;;;;;26.13;55.57;100074.78;10465943;28;20053;-74
2021/06/19 06:34:14;;;;;;;8.85;6.03;;;;;;;26.10;54.88;100076.91;10474211;28;20051;-72
2021/06/19 06:39:18;;;;;;;8.52;5.47;;;;;;;26.27;55.04;100084.44;10478318;28;20630;-72
2021/06/19 06:44:20;;;;;;;7.63;5.93;;;;;;;26.25;54.20;100086.56;10470091;28;20477;-72
2021/06/19 06:49:22;;;;;;;8.67;5.20;;;;;;;26.38;54.67;100083.66;10470673;28;20093;-73
2021/06/19 06:54:24;;;;;;;8.25;5.15;;;;;;;26.47;53.85;100081.44;10474661;28;20044;-75
2021/06/19 06:59:25;;;;;;;6.93;4.75;;;;;;;26.52;53.42;100080.75;10464804;28;20044;-73
2021/06/19 07:04:27;;;;;;;5.18;4.68;;;;;;;26.76;52.34;100085.19;10480543;28;20048;-72
2021/06/19 07:09:29;;;;;;;5.15;3.95;;;;;;;26.83;51.75;100087.00;10478799;28;20666;-72
2021/06/19 07:14:30;;;;;;;7.15;4.25;;;;;;;26.87;51.86;100080.81;10467389;28;21497;-71
2021/06/19 07:19:32;;;;;;;5.53;4.10;;;;;;;27.02;51.50;100080.34;10476912;28;20047;-73
2021/06/19 07:24:35;;;;;;;5.70;3.60;;;;;;;27.15;49.93;100087.50;10468546;28;20446;-73
2021/06/19 07:29:36;;;;;;;3.83;3.38;;;;;;;27.17;48.76;100079.91;10476853;28;20051;-73
2021/06/19 07:34:38;;;;;;;4.88;3.40;;;;;;;27.28;48.02;100081.81;10472474;28;20049;-73
2021/06/19 07:39:39;;;;;;;4.78;3.20;;;;;;;27.51;48.37;100089.16;10472003;28;20044;-72
2021/06/19 07:44:41;;;;;;;4.88;3.22;;;;;;;27.66;46.73;100082.38;10472586;28;20502;-74
2021/06/19 07:49:43;;;;;;;3.55;2.30;;;;;;;27.78;46.32;100080.44;10468625;28;20435;-73
2021/06/19 07:54:44;;;;;;;5.78;3.05;;;;;;;28.10;45.75;100071.00;10469469;28;20654;-73
2021/06/19 07:59:46;;;;;;;3.08;1.98;;;;;;;28.39;44.30;100074.56;10470936;28;20103;-73
2021/06/19 08:04:47;;;;;;;5.45;2.90;;;;;;;28.44;44.37;100077.38;10466419;28;20059;-72
2021/06/19 08:09:48;;;;;;;5.13;2.88;;;;;;;28.39;43.70;100082.75;10463525;28;21366;-72
2021/06/19 08:14:50;;;;;;;3.35;2.67;;;;;;;28.62;42.97;100075.53;10470831;28;20079;-72
2021/06/19 08:19:52;;;;;;;3.80;2.25;;;;;;;28.82;42.55;100067.63;10480653;28;20056;-72
2021/06/19 08:24:53;;;;;;;4.90;3.30;;;;;;;28.73;42.81;100069.97;10473696;28;20063;-71
2021/06/19 08:29:55;;;;;;;3.03;2.73;;;;;;;28.94;43.51;100064.81;10475520;28;20177;-71
2021/06/19 08:34:56;;;;;;;3.97;2.85;;;;;;;29.09;42.33;100054.09;10469977;28;20464;-72
2021/06/19 08:39:58;;;;;;;6.80;3.03;;;;;;;29.30;41.48;100056.34;10475158;28;20044;-69
2021/06/19 08:45:00;;;;;;;4.80;2.33;;;;;;;29.27;42.16;100058.50;10484910;28;20059;-70
2021/06/19 08:50:08;;;;;;;4.18;2.80;;;;;;;29.69;40.66;100053.56;10480892;28;20045;-69
2021/06/19 08:55:14;;;;;;;5.25;2.53;;;;;;;29.89;40.74;100053.00;10473591;28;20043;-71
2021/06/19 09:00:16;;;;;;;7.90;2.45;;;;;;;30.15;40.30;100046.69;10479226;28;20068;-72
2021/06/19 09:05:30;;;;;;;4.20;2.75;;;;;;;30.18;38.94;100053.59;10491837;28;20052;-73
2021/06/19 09:10:54;;;;;;;5.10;2.85;;;;;;;30.28;39.86;100055.59;10470421;28;20490;-71
2021/06/19 09:15:56;;;;;;;5.88;2.47;;;;;;;30.31;39.28;100044.94;10468435;28;20044;-71
2021/06/19 09:21:00;;;;;;;4.10;2.40;;;;;;;30.56;38.95;100040.78;10474751;28;20415;-72
2021/06/19 09:26:23;;;;;;;5.55;3.15;;;;;;;30.70;38.46;100037.59;10474526;28;20063;-71
2021/06/19 09:31:43;;;;;;;3.28;2.72;;;;;;;31.10;37.70;100022.53;10468099;28;20052;-72
2021/06/19 09:36:46;;;;;;;5.07;2.88;;;;;;;31.18;38.52;100017.38;10472647;28;20052;-72
2021/06/19 09:41:54;;;;;;;4.15;2.60;;;;;;;31.21;37.37;100007.75;10478103;28;20130;-72
2021/06/19 09:46:56;;;;;;;7.05;2.97;;;;;;;31.71;37.85;100000.84;10469174;28;20035;-73
2021/06/19 09:51:59;;;;;;;4.50;2.92;;;;;;;31.62;37.31;100004.41;10474665;28;20039;-71
2021/06/19 09:57:00;;;;;;;6.55;3.50;;;;;;;31.66;37.60;99997.25;10470161;28;20425;-72
2021/06/19 10:02:15;;;;;;;6.88;3.08;;;;;;;31.81;36.65;99999.22;10471308;28;23983;-70
2021/06/19 10:07:19;;;;;;;6.03;2.88;;;;;;;32.02;37.06;99995.44;10472467;28;20060;-72
2021/06/19 10:12:22;;;;;;;6.53;2.90;;;;;;;32.46;35.84;99990.50;10481478;28;21642;-70
2021/06/19 10:17:29;;;;;;;5.15;3.60;;;;;;;32.98;34.81;99991.31;10480600;28;20466;-71
2021/06/19 10:22:33;;;;;;;4.43;2.80;;;;;;;33.33;34.28;99992.31;10476304;28;20481;-71
2021/06/19 10:27:37;;;;;;;5.45;4.05;;;;;;;33.09;34.78;99974.47;10479152;28;20056;-71
2021/06/19 10:32:48;;;;;;;4.22;2.80;;;;;;;32.97;34.68;99964.84;10482105;28;20093;-72
2021/06/19 10:37:51;;;;;;;4.22;2.85;;;;;;;33.42;34.66;99954.78;10482541;28;20093;-73
2021/06/19 10:42:54;;;;;;;4.00;3.13;;;;;;;33.50;33.92;99953.38;10447759;28;20166;-71
2021/06/19 10:48:02;;;;;;;5.43;2.88;;;;;;;33.72;34.30;99940.00;10474796;28;20056;-74
2021/06/19 10:53:07;;;;;;;5.65;2.95;;;;;;;33.88;33.50;99917.84;10477442;28;20643;-74
2021/06/19 10:58:33;;;;;;;5.90;3.20;;;;;;;33.62;33.69;99920.75;10476578;28;20048;-75
2021/06/19 11:03:49;;;;;;;4.25;2.78;;;;;;;34.06;31.95;99911.63;10495034;28;20538;-74
2021/06/19 11:09:15;;;;;;;7.07;2.92;;;;;;;33.90;32.08;99902.66;10473393;28;20037;-74
2021/06/19 11:14:42;;;;;;;5.63;3.08;;;;;;;33.95;32.25;99901.78;10449638;28;20052;-73
2021/06/19 11:19:49;;;;;;;7.32;3.10;;;;;;;33.93;31.66;99887.44;10472804;28;20052;-75
2021/06/19 11:25:10;;;;;;;7.78;4.10;;;;;;;34.31;31.34;99893.22;10472555;28;20052;-75
2021/06/19 11:30:34;;;;;;;4.57;3.25;;;;;;;34.68;30.70;99880.66;10467779;28;20040;-72
2021/06/19 11:35:36;;;;;;;4.03;2.83;;;;;;;34.73;30.16;99879.81;10472316;28;20044;-72
2021/06/19 11:40:39;;;;;;;4.82;2.63;;;;;;;34.92;30.93;99863.28;10465609;28;20056;-72
2021/06/19 11:45:42;;;;;;;4.50;2.45;;;;;;;35.19;30.14;99851.56;10466282;28;20060;-73
2021/06/19 11:50:45;;;;;;;4.88;2.70;;;;;;;35.52;29.35;99849.75;10478257;28;20681;-74
2021/06/19 11:55:47;;;;;;;5.55;2.88;;;;;;;35.45;29.33;99838.25;10478236;28;20093;-75
2021/06/19 12:00:56;;;;;;;4.57;2.45;;;;;;;34.90;28.13;99844.22;10473089;28;20056;-74
2021/06/19 12:05:57;;;;;;;4.00;2.63;;;;;;;34.68;28.60;99841.97;10474877;28;20055;-74
2021/06/19 12:11:00;;;;;;;3.00;2.13;;;;;;;34.81;28.68;99835.75;10479534;28;20066;-72
2021/06/19 12:16:08;;;;;;;5.47;2.83;;;;;;;34.93;28.67;99837.28;10481159;28;20049;-74
2021/06/19 12:21:11;;;;;;;5.97;2.67;;;;;;;34.96;28.62;99839.44;10472476;28;20418;-73
2021/06/19 12:26:15;;;;;;;5.63;2.65;;;;;;;34.99;28.26;99830.56;10473234;28;20538;-72
2021/06/19 12:31:22;;;;;;;5.10;2.47;;;;;;;34.91;27.05;99834.81;10477722;28;20056;-73
2021/06/19 12:36:24;;;;;;;5.78;2.80;;;;;;;34.65;27.78;99829.59;10474889;28;20044;-75
2021/06/19 12:41:25;;;;;;;5.80;2.88;;;;;;;34.53;28.12;99841.03;10468291;28;20864;-72
2021/06/19 12:46:27;;;;;;;5.25;3.38;;;;;;;34.62;29.21;99826.56;10476905;28;20461;-73
2021/06/19 12:51:36;;;;;;;5.32;2.28;;;;;;;34.84;28.50;99818.56;10488209;28;20056;-72
2021/06/19 12:56:51;;;;;;;5.85;2.97;;;;;;;35.03;27.04;99828.84;10489257;28;20469;-74
2021/06/19 13:02:04;;;;;;;4.00;2.53;;;;;;;34.99;26.79;99816.75;10474549;28;20052;-72
2021/06/19 13:07:13;;;;;;;8.20;2.28;;;;;;;34.93;27.83;99804.09;10479997;28;20072;-74
2021/06/19 13:12:20;;;;;;;3.72;2.03;;;;;;;34.80;27.37;99800.97;10475323;28;20511;-71
2021/06/19 13:17:22;;;;;;;3.53;2.40;;;;;;;34.82;27.46;99787.66;10473261;28;20498;-73
2021/06/19 13:22:26;;;;;;;4.55;2.38;;;;;;;34.98;27.48;99790.19;10476020;28;20047;-71
2021/06/19 13:27:27;;;;;;;6.55;2.75;;;;;;;34.97;26.73;99783.06;10482063;28;20041;-71
2021/06/19 13:32:29;;;;;;;5.70;2.97;;;;;;;34.89;27.22;99779.00;10470467;28;20434;-71
2021/06/19 13:37:33;;;;;;;5.40;3.35;;;;;;;34.83;27.50;99782.94;10475431;28;20044;-72
2021/06/19 13:42:58;;;;;;;4.30;2.45;;;;;;;34.80;27.45;99773.31;10469759;28;20148;-73
2021/06/19 13:48:02;;;;;;;5.70;2.40;;;;;;;35.04;27.88;99767.72;10472581;28;20055;-74
2021/06/19 13:53:04;;;;;;;6.63;2.53;;;;;;;35.31;27.39;99766.25;10475807;28;24096;-74
2021/06/19 13:58:05;;;;;;;5.00;2.30;;;;;;;35.45;26.78;99759.97;10478666;28;20422;-72
2021/06/19 14:03:06;;;;;;;5.60;3.10;;;;;;;35.31;26.70;99746.88;10474727;28;20577;-71
2021/06/19 14:08:08;;;;;;;4.55;2.70;;;;;;;34.86;27.53;99744.50;10472514;28;20052;-73
2021/06/19 14:13:09;;;;;;;8.57;2.60;;;;;;;34.64;26.83;99747.78;10465174;28;20059;-72
2021/06/19 14:18:11;;;;;;;6.40;3.22;;;;;;;34.46;27.83;99746.63;10464452;28;20056;-71
2021/06/19 14:23:13;;;;;;;5.68;2.88;;;;;;;34.38;27.84;99741.78;10467427;28;20060;-73
2021/06/19 14:28:14;;;;;;;3.58;2.40;;;;;;;34.32;28.02;99727.19;10462445;28;20052;-72
2021/06/19 14:33:16;;;;;;;6.93;2.97;;;;;;;34.32;28.13;99723.59;10472633;28;20055;-75
2021/06/19 14:38:18;;;;;;;7.68;3.08;;;;;;;34.29;27.57;99718.66;10467643;28;20057;-71
2021/06/19 14:43:19;;;;;;;11.00;3.58;;;;;;;34.23;27.98;99719.81;10467569;28;20063;-71
2021/06/19 14:48:21;;;;;;;6.47;3.47;;;;;;;34.16;28.31;99723.75;10466587;28;20511;-74
2021/06/19 14:53:22;;;;;;;7.70;2.97;;;;;;;34.11;28.82;99712.78;10465212;28;20422;-72
2021/06/19 14:58:24;;;;;;;;;;;;;;;33.99;28.78;99702.16;10467944;28;20048;-73
2021/06/19 15:03:25;;;;;;;7.22;3.15;;;;;;;33.72;28.85;99699.94;10465441;28;19928;-71
2021/06/19 15:08:28;;;;;;;;;;;;;;;33.61;28.46;99698.38;10464162;28;20425;-71
2021/06/19 15:13:29;;;;;;;7.47;3.95;;;;;;;33.68;28.90;99681.50;10460291;28;20587;-71
2021/06/19 15:18:31;;;;;;;6.30;3.35;;;;;;;33.71;29.07;99681.72;10472839;28;20048;-71
2021/06/19 15:23:34;;;;;;;;;;;;;;;33.71;29.82;99670.69;10469289;28;20728;-68
2021/06/19 15:28:36;;;;;;;6.70;3.60;;;;;;;33.73;29.06;99662.13;10479361;28;19928;-71
2021/06/19 15:33:37;;;;;;;;;;;;;;;33.67;29.13;99658.56;10481234;28;20067;-72
2021/06/19 15:38:41;;;;;;;6.78;3.92;;;;;;;33.69;29.25;99666.56;10481228;28;20514;-73
2021/06/19 15:43:42;;;;;;;7.43;3.53;;;;;;;33.60;29.37;99652.56;10479630;28;20044;-71
2021/06/19 15:48:43;;;;;;;;;;;;;;;33.65;29.00;99660.81;10474384;28;20055;-71
2021/06/19 15:53:45;;;;;;;10.38;7.95;;;;;;;33.64;29.68;99651.72;10465681;28;19924;-71
2021/06/19 15:58:47;;;;;;;8.32;4.00;;;;;;;33.65;29.55;99641.50;10474235;28;20052;-70
2021/06/19 16:03:48;;;;;;;;;;;;;;;33.61;29.83;99645.94;10477149;28;20048;-72
2021/06/19 16:08:50;;;;;;;7.53;4.53;;;;;;;33.57;30.07;99642.97;10471679;28;19920;-71
2021/06/19 16:13:52;;;;;;;8.40;4.05;;;;;;;33.60;29.87;99641.53;10465133;28;20530;-71
2021/06/19 16:18:53;;;;;;;6.13;3.63;;;;;;;33.61;30.80;99626.63;10467157;28;20103;-73
2021/06/19 16:23:55;;;;;;;;;;;;;;;33.58;30.39;99628.03;10470199;28;20060;-73
2021/06/19 16:28:57;;;;;;;7.63;4.28;;;;;;;33.47;30.51;99610.78;10468967;28;19924;-74
2021/06/19 16:33:59;;;;;;;11.00;4.18;;;;;;;33.51;30.68;99610.19;10471777;28;20049;-71
2021/06/19 16:39:00;;;;;;;6.85;3.33;;;;;;;33.52;31.14;99593.34;10474696;28;20052;-70
2021/06/19 16:44:02;;;;;;;9.30;3.78;;;;;;;33.43;30.86;99584.06;10463222;28;20514;-71
2021/06/19 16:49:04;;;;;;;7.78;3.92;;;;;;;33.43;30.83;99584.88;10475972;28;20071;-71
2021/06/19 16:54:06;;;;;;;10.63;4.88;;;;;;;33.34;31.60;99572.84;10474778;28;20502;-71
2021/06/19 16:59:07;;;;;;;9.38;4.50;;;;;;;33.25;31.83;99574.59;10481414;28;20049;-75
2021/06/19 17:04:09;;;;;;;11.82;3.85;;;;;;;33.28;32.34;99547.28;10477868;28;20052;-71
2021/06/19 17:09:11;;;;;;;6.38;3.30;;;;;;;33.31;32.93;99545.84;10468774;28;20056;-71
2021/06/19 17:14:13;;;;;;;4.55;3.25;;;;;;;33.23;33.35;99538.25;10468221;28;20051;-72
2021/06/19 17:19:14;;;;;;;;;;;;;;;33.14;34.04;99529.75;10469248;28;20662;-71
2021/06/19 17:24:16;;;;;;;8.30;3.57;;;;;;;33.02;34.15;99532.91;10470282;28;20705;-74
2021/06/19 17:29:17;;;;;;;3.60;2.90;;;;;;;32.88;34.26;99526.41;10468225;28;20060;-70
2021/06/19 17:34:19;;;;;;;;;;;;;;;32.77;34.72;99515.50;10465760;28;20049;-70
2021/06/19 17:39:20;;;;;;;5.90;3.67;;;;;;;32.60;35.08;99524.13;10466840;28;19928;-72
2021/06/19 17:44:22;;;;;;;6.80;3.65;;;;;;;32.49;35.16;99519.84;10470509;28;20045;-71
2021/06/19 17:49:24;;;;;;;8.60;3.70;;;;;;;32.37;35.60;99520.19;10470249;28;20060;-73
2021/06/19 17:54:25;;;;;;;;;;;;;;;32.30;36.37;99522.44;10471776;28;20063;-70
2021/06/19 17:59:28;;;;;;;5.87;3.83;;;;;;;32.22;36.03;99514.78;10469197;28;20298;-70
2021/06/19 18:04:30;;;;;;;6.70;4.15;;;;;;;32.13;35.92;99514.56;10466875;28;20052;-73
2021/06/19 18:09:32;;;;;;;6.60;4.10;;;;;;;32.01;35.91;99509.38;10464853;28;20569;-71
2021/06/19 18:14:34;;;;;;;5.97;4.32;;;;;;;31.90;36.23;99505.03;10459298;28;20636;-72
2021/06/19 18:19:35;;;;;;;5.50;4.03;;;;;;;31.77;36.65;99486.38;10461052;28;20056;-73
2021/06/19 18:24:41;;;;;;;6.82;4.50;;;;;;;31.70;37.00;99478.47;10467986;28;20651;-70
2021/06/19 18:29:43;;;;;;;10.63;5.00;;;;;;;31.65;37.31;99484.00;10467083;28;20469;-73
2021/06/19 18:34:47;;;;;;;6.35;4.13;;;;;;;31.54;38.56;99477.66;10463322;28;20052;-70
2021/06/19 18:39:50;;;;;;;6.40;4.47;;;;;;;31.43;38.83;99467.81;10464724;28;20044;-71
2021/06/19 18:44:52;;;;;;;8.48;4.50;;;;;;;31.27;39.40;99483.53;10466586;28;20056;-73
2021/06/19 18:49:53;;;;;;;;;;;;;;;31.22;39.84;99492.63;10466261;28;20040;-71
2021/06/19 18:54:55;;;;;;;9.60;4.95;;;;;;;31.18;40.27;99508.03;10466939;28;21315;-71
2021/06/19 18:59:57;;;;;;;6.68;4.55;;;;;;;31.12;40.63;99520.13;10461205;28;20048;-72
2021/06/19 19:05:00;;;;;;;7.80;4.63;;;;;;;31.04;41.07;99528.97;10466286;28;20055;-71
2021/06/19 19:10:03;;;;;;;6.18;5.10;;;;;;;30.96;41.46;99522.88;10464618;28;20055;-73
2021/06/19 19:15:08;;;;;;;9.18;6.57;;;;;;;30.86;42.04;99528.38;10468024;28;20124;-70
2021/06/19 19:20:15;;;;;;;10.63;5.43;;;;;;;30.78;42.11;99516.03;10466648;28;20044;-73
2021/06/19 19:25:17;;;;;;;9.70;6.18;;;;;;;30.68;42.60;99514.09;10458224;28;20047;-71
2021/06/19 19:30:21;;;;;;;10.10;5.85;;;;;;;30.56;43.01;99494.34;10469910;28;20044;-70
2021/06/19 19:35:24;;;;;;;11.07;9.98;;;;;;;30.44;43.31;99500.09;10462992;28;20518;-72
2021/06/19 19:40:26;;;;;;;7.38;5.30;;;;;;;30.36;43.35;99516.28;10466611;28;20452;-73
2021/06/19 19:45:28;;;;;;;9.98;5.65;;;;;;;30.23;43.61;99518.44;10467323;28;20047;-70
2021/06/19 19:50:30;;;;;;;;;;;;;;;30.15;44.26;99529.97;10468681;28;20048;-71
2021/06/19 19:55:32;;;;;;;9.13;7.22;;;;;;;30.08;43.81;99529.38;10465342;28;19920;-70
2021/06/19 20:00:33;;;;;;;9.25;6.00;;;;;;;29.97;44.30;99529.34;10461200;28;20051;-71
2021/06/19 20:05:35;;;;;;;10.00;5.80;;;;;;;29.90;44.21;99517.81;10453953;28;20064;-70
2021/06/19 20:10:37;;;;;;;9.10;5.70;;;;;;;29.83;44.65;99511.75;10468415;28;20052;-71
2021/06/19 20:15:39;;;;;;;;;;;;;;;29.77;45.56;99507.28;10471709;28;20082;-70
2021/06/19 20:20:41;;;;;;;11.13;6.67;;;;;;;29.72;45.54;99504.56;10450887;28;19920;-69
2021/06/19 20:25:43;;;;;;;10.10;6.03;;;;;;;29.70;45.13;99496.59;10465749;28;20051;-70
2021/06/19 20:30:46;;;;;;;8.82;6.80;;;;;;;29.66;45.85;99490.00;10471521;28;20053;-71
2021/06/19 20:35:53;;;;;;;9.70;6.85;;;;;;;29.60;46.08;99480.09;10461038;28;20054;-71
2021/06/19 20:40:55;;;;;;;9.23;6.32;;;;;;;29.50;45.93;99478.16;10464042;28;20055;-71
2021/06/19 20:46:01;;;;;;;9.20;6.40;;;;;;;29.42;46.30;99478.66;10447894;28;20049;-72
2021/06/19 20:51:03;;;;;;;11.98;6.22;;;;;;;29.40;46.49;99491.81;10455682;28;20223;-70
2021/06/19 20:56:05;;;;;;;13.88;6.80;;;;;;;29.38;46.86;99488.50;10460557;28;20044;-73
2021/06/19 21:01:06;;;;;;;10.47;6.67;;;;;;;29.31;47.25;99480.53;10471632;28;20048;-70
2021/06/19 21:06:08;;;;;;;10.97;7.13;;;;;;;29.25;47.35;99471.44;10483066;28;20517;-72
2021/06/19 21:11:14;;;;;;;11.00;6.43;;;;;;;29.18;48.29;99462.59;10478959;28;20041;-72
2021/06/19 21:16:16;;;;;;;8.63;6.13;;;;;;;29.06;47.91;99454.59;10473431;28;20133;-69
2021/06/19 21:21:17;;;;;;;12.60;7.20;;;;;;;28.97;47.83;99474.53;10472749;28;20125;-70
2021/06/19 21:26:19;;;;;;;9.53;6.07;;;;;;;28.89;48.30;99460.25;10471219;28;20048;-70
2021/06/19 21:31:20;;;;;;;9.30;6.33;;;;;;;28.84;48.43;99446.53;10472630;28;20394;-71
2021/06/19 21:36:26;;;;;;;8.70;6.33;;;;;;;28.80;49.19;99445.41;10472412;28;20531;-71
2021/06/19 21:41:28;;;;;;;9.40;6.53;;;;;;;28.80;48.81;99437.19;10468026;28;20500;-68
2021/06/19 21:46:30;;;;;;;11.25;6.97;;;;;;;28.74;49.18;99430.03;10459150;28;20056;-67
2021/06/19 21:51:32;;;;;;;8.90;6.88;;;;;;;28.68;49.48;99414.66;10459422;28;20044;-69
2021/06/19 21:56:33;;;;;;;9.33;7.67;;;;;;;28.60;50.27;99398.72;10468909;28;20057;-69
2021/06/19 22:01:35;;;;;;;10.67;7.60;;;;;;;28.52;50.39;99383.59;10468023;28;20064;-70
2021/06/19 22:06:36;;;;;;;9.93;7.00;;;;;;;28.49;50.35;99379.47;10460292;28;20048;-70
2021/06/19 22:11:39;;;;;;;9.98;6.70;;;;;;;28.41;50.54;99373.69;10470115;28;20506;-71
2021/06/19 22:16:40;;;;;;;12.13;7.00;;;;;;;28.30;51.48;99379.06;10472336;28;20073;-73
2021/06/19 22:21:42;;;;;;;8.32;5.90;;;;;;;28.21;50.42;99372.44;10457503;28;20063;-70
2021/06/19 22:26:44;;;;;;;10.30;6.55;;;;;;;28.18;51.21;99376.50;10452532;28;20055;-74
2021/06/19 22:31:46;;;;;;;8.40;6.72;;;;;;;28.12;51.75;99377.56;10456551;28;20109;-73
2021/06/19 22:36:47;;;;;;;10.43;7.20;;;;;;;28.06;51.32;99375.03;10446009;28;20036;-70
2021/06/19 22:41:49;;;;;;;9.82;7.47;;;;;;;28.05;51.85;99379.69;10451807;28;20059;-72
2021/06/19 22:46:51;;;;;;;8.15;6.72;;;;;;;28.01;51.04;99384.00;10459061;28;20049;-73
2021/06/19 22:51:52;;;;;;;11.23;6.83;;;;;;;28.07;51.24;99393.91;10458803;28;20057;-72
2021/06/19 22:56:54;;;;;;;9.82;7.30;;;;;;;28.03;51.06;99373.66;10455246;28;20097;-72
2021/06/19 23:01:55;;;;;;;8.95;6.72;;;;;;;27.98;51.11;99358.03;10464149;28;20075;-71
2021/06/19 23:06:57;;;;;;;8.77;5.88;;;;;;;27.89;50.01;99340.38;10457474;28;20221;-71
2021/06/19 23:11:59;;;;;;;11.27;5.70;;;;;;;27.86;49.37;99299.91;10450825;28;20064;-72
2021/06/19 23:17:00;;;;;;;13.00;6.07;;;;;;;27.84;49.06;99281.03;10463733;28;20106;-73
2021/06/19 23:22:02;;;;;;;10.07;5.07;;;;;;;27.79;49.70;99264.59;10463091;28;20132;-71
2021/06/19 23:27:05;;;;;;;13.15;6.00;;;;;;;27.80;49.61;99274.44;10459202;28;20423;-73